sensor_id;sensor_type;location;lat;lon;timestamp;pressure;altitude;pressure_sealevel;temperature;humidity
76260;BME280;65076;52.362;6.588;2023-04-01T00:01:07;99120.03;;;11.66;83.06
76260;BME280;65076;52.362;6.588;2023-04-01T00:03:35;99120.38;;;11.72;82.89
76260;BME280;65076;52.362;6.588;2023-04-01T00:06:03;99115.69;;;11.52;83.52
76260;BME280;65076;52.362;6.588;2023-04-01T00:08:31;99112.16;;;11.74;82.84
76260;BME280;65076;52.362;6.588;2023-04-01T00:10:59;99118.56;;;11.73;82.70
76260;BME280;65076;52.362;6.588;2023-04-01T00:13:28;99117.53;;;11.63;83.01
76260;BME280;65076;52.362;6.588;2023-04-01T00:15:56;99115.13;;;11.82;82.95
76260;BME280;65076;52.362;6.588;2023-04-01T00:18:27;99111.41;;;11.83;82.79
76260;BME280;65076;52.362;6.588;2023-04-01T00:20:55;99109.34;;;11.75;82.89
76260;BME280;65076;52.362;6.588;2023-04-01T00:23:23;99113.78;;;11.76;82.69
76260;BME280;65076;52.362;6.588;2023-04-01T00:25:51;99117.19;;;11.67;82.86
76260;BME280;65076;52.362;6.588;2023-04-01T00:28:19;99110.56;;;11.82;82.68
76260;BME280;65076;52.362;6.588;2023-04-01T00:30:48;99116.59;;;11.86;82.71
76260;BME280;65076;52.362;6.588;2023-04-01T00:33:16;99111.50;;;12.04;82.10
76260;BME280;65076;52.362;6.588;2023-04-01T00:35:45;99112.28;;;11.95;82.25
76260;BME280;65076;52.362;6.588;2023-04-01T00:38:14;99104.91;;;11.85;82.86
76260;BME280;65076;52.362;6.588;2023-04-01T00:40:44;99104.28;;;11.82;82.71
76260;BME280;65076;52.362;6.588;2023-04-01T00:43:15;99106.00;;;11.61;82.95
76260;BME280;65076;52.362;6.588;2023-04-01T00:45:48;99106.47;;;11.88;82.74
76260;BME280;65076;52.362;6.588;2023-04-01T00:48:18;99109.06;;;11.78;82.78
76260;BME280;65076;52.362;6.588;2023-04-01T00:50:56;99107.59;;;11.85;82.74
76260;BME280;65076;52.362;6.588;2023-04-01T00:53:28;99103.63;;;11.67;82.68
76260;BME280;65076;52.362;6.588;2023-04-01T00:56:01;99108.81;;;11.70;83.03
76260;BME280;65076;52.362;6.588;2023-04-01T00:58:35;99103.28;;;11.61;83.21
76260;BME280;65076;52.362;6.588;2023-04-01T01:01:08;99106.53;;;11.77;83.03
76260;BME280;65076;52.362;6.588;2023-04-01T01:03:37;99104.03;;;11.74;82.93
76260;BME280;65076;52.362;6.588;2023-04-01T01:06:13;99110.91;;;11.67;83.37
76260;BME280;65076;52.362;6.588;2023-04-01T01:09:07;99115.47;;;11.66;82.86
76260;BME280;65076;52.362;6.588;2023-04-01T01:11:48;99104.78;;;11.76;83.53
76260;BME280;65076;52.362;6.588;2023-04-01T01:14:33;99109.34;;;11.75;83.01
76260;BME280;65076;52.362;6.588;2023-04-01T01:17:14;99106.63;;;11.75;83.87
76260;BME280;65076;52.362;6.588;2023-04-01T01:20:10;99099.75;;;11.82;82.83
76260;BME280;65076;52.362;6.588;2023-04-01T01:23:08;99109.31;;;11.64;82.84
76260;BME280;65076;52.362;6.588;2023-04-01T01:25:59;99110.22;;;11.76;83.22
76260;BME280;65076;52.362;6.588;2023-04-01T01:28:49;99113.91;;;11.86;83.41
76260;BME280;65076;52.362;6.588;2023-04-01T01:31:34;99107.00;;;11.93;82.44
76260;BME280;65076;52.362;6.588;2023-04-01T01:34:13;99111.41;;;11.83;82.84
76260;BME280;65076;52.362;6.588;2023-04-01T01:36:53;99106.13;;;11.81;82.83
76260;BME280;65076;52.362;6.588;2023-04-01T01:39:28;99106.97;;;11.71;83.14
76260;BME280;65076;52.362;6.588;2023-04-01T01:42:01;99109.16;;;12.10;82.57
76260;BME280;65076;52.362;6.588;2023-04-01T01:44:33;99115.72;;;11.97;82.18
76260;BME280;65076;52.362;6.588;2023-04-01T01:47:03;99111.41;;;12.05;82.46
76260;BME280;65076;52.362;6.588;2023-04-01T01:49:33;99111.19;;;11.86;82.94
76260;BME280;65076;52.362;6.588;2023-04-01T01:52:05;99115.47;;;11.88;82.03
76260;BME280;65076;52.362;6.588;2023-04-01T01:54:33;99109.53;;;12.17;82.34
76260;BME280;65076;52.362;6.588;2023-04-01T01:57:04;99112.91;;;11.76;82.81
76260;BME280;65076;52.362;6.588;2023-04-01T01:59:36;99111.56;;;11.93;82.62
76260;BME280;65076;52.362;6.588;2023-04-01T02:02:08;99115.63;;;11.98;82.53
76260;BME280;65076;52.362;6.588;2023-04-01T02:04:42;99114.38;;;12.02;82.17
76260;BME280;65076;52.362;6.588;2023-04-01T02:07:16;99124.59;;;11.65;82.54
76260;BME280;65076;52.362;6.588;2023-04-01T02:09:50;99120.41;;;11.95;82.49
76260;BME280;65076;52.362;6.588;2023-04-01T02:12:21;99127.91;;;12.24;81.79
76260;BME280;65076;52.362;6.588;2023-04-01T02:14:53;99129.25;;;12.19;81.74
76260;BME280;65076;52.362;6.588;2023-04-01T02:17:27;99125.94;;;12.04;81.55
76260;BME280;65076;52.362;6.588;2023-04-01T02:19:59;99132.09;;;12.06;82.17
76260;BME280;65076;52.362;6.588;2023-04-01T02:22:35;99131.34;;;12.15;81.63
76260;BME280;65076;52.362;6.588;2023-04-01T02:25:11;99133.56;;;12.21;81.72
76260;BME280;65076;52.362;6.588;2023-04-01T02:27:43;99135.16;;;12.24;81.26
76260;BME280;65076;52.362;6.588;2023-04-01T02:30:14;99139.75;;;11.90;82.01
76260;BME280;65076;52.362;6.588;2023-04-01T02:32:44;99132.69;;;12.10;82.08
76260;BME280;65076;52.362;6.588;2023-04-01T02:35:15;99127.03;;;12.13;81.65
76260;BME280;65076;52.362;6.588;2023-04-01T02:37:48;99132.84;;;12.19;81.53
76260;BME280;65076;52.362;6.588;2023-04-01T02:40:19;99130.84;;;12.10;81.95
76260;BME280;65076;52.362;6.588;2023-04-01T02:42:47;99130.84;;;12.10;82.37
76260;BME280;65076;52.362;6.588;2023-04-01T02:45:15;99139.34;;;12.17;81.85
76260;BME280;65076;52.362;6.588;2023-04-01T02:47:43;99143.50;;;12.32;81.24
76260;BME280;65076;52.362;6.588;2023-04-01T02:50:11;99138.09;;;12.32;80.97
76260;BME280;65076;52.362;6.588;2023-04-01T02:52:39;99141.25;;;12.48;80.75
76260;BME280;65076;52.362;6.588;2023-04-01T02:55:09;99149.91;;;12.42;81.01
76260;BME280;65076;52.362;6.588;2023-04-01T02:57:37;99144.16;;;12.24;81.08
76260;BME280;65076;52.362;6.588;2023-04-01T03:00:06;99146.22;;;12.32;81.84
76260;BME280;65076;52.362;6.588;2023-04-01T03:02:38;99150.69;;;12.11;81.94
76260;BME280;65076;52.362;6.588;2023-04-01T03:05:07;99146.81;;;12.36;81.32
76260;BME280;65076;52.362;6.588;2023-04-01T03:07:35;99150.59;;;11.90;82.57
76260;BME280;65076;52.362;6.588;2023-04-01T03:10:04;99156.75;;;12.57;81.14
76260;BME280;65076;52.362;6.588;2023-04-01T03:12:34;99155.59;;;12.39;81.33
76260;BME280;65076;52.362;6.588;2023-04-01T03:15:03;99160.53;;;12.34;80.79
76260;BME280;65076;52.362;6.588;2023-04-01T03:17:39;99160.78;;;12.20;81.53
76260;BME280;65076;52.362;6.588;2023-04-01T03:20:09;99161.66;;;12.20;81.32
76260;BME280;65076;52.362;6.588;2023-04-01T03:22:37;99161.91;;;12.06;81.67
76260;BME280;65076;52.362;6.588;2023-04-01T03:25:09;99168.31;;;11.94;82.38
76260;BME280;65076;52.362;6.588;2023-04-01T03:27:39;99169.28;;;12.26;81.86
76260;BME280;65076;52.362;6.588;2023-04-01T03:30:07;99174.88;;;12.57;81.36
76260;BME280;65076;52.362;6.588;2023-04-01T03:32:36;99174.88;;;12.14;81.26
76260;BME280;65076;52.362;6.588;2023-04-01T03:35:05;99182.63;;;12.18;81.78
76260;BME280;65076;52.362;6.588;2023-04-01T03:37:36;99180.50;;;12.33;81.21
76260;BME280;65076;52.362;6.588;2023-04-01T03:40:05;99180.78;;;12.08;81.89
76260;BME280;65076;52.362;6.588;2023-04-01T03:42:33;99179.75;;;12.20;82.00
76260;BME280;65076;52.362;6.588;2023-04-01T03:45:04;99183.50;;;12.08;82.14
76260;BME280;65076;52.362;6.588;2023-04-01T03:47:33;99179.91;;;12.07;81.88
76260;BME280;65076;52.362;6.588;2023-04-01T03:50:02;99184.84;;;12.24;81.28
76260;BME280;65076;52.362;6.588;2023-04-01T03:52:30;99192.84;;;12.04;81.82
76260;BME280;65076;52.362;6.588;2023-04-01T03:54:58;99195.31;;;12.29;81.44
76260;BME280;65076;52.362;6.588;2023-04-01T03:57:27;99190.38;;;12.23;80.94
76260;BME280;65076;52.362;6.588;2023-04-01T03:59:55;99192.19;;;12.56;80.77
76260;BME280;65076;52.362;6.588;2023-04-01T04:02:25;99200.81;;;12.61;80.32
76260;BME280;65076;52.362;6.588;2023-04-01T04:04:53;99201.72;;;12.28;80.74
76260;BME280;65076;52.362;6.588;2023-04-01T04:07:21;99204.13;;;12.53;80.37
76260;BME280;65076;52.362;6.588;2023-04-01T04:09:49;99205.78;;;12.00;81.61
76260;BME280;65076;52.362;6.588;2023-04-01T04:12:18;99200.84;;;12.27;80.98
76260;BME280;65076;52.362;6.588;2023-04-01T04:14:46;99204.19;;;12.09;82.16
76260;BME280;65076;52.362;6.588;2023-04-01T04:17:14;99207.13;;;12.28;81.48
76260;BME280;65076;52.362;6.588;2023-04-01T04:19:44;99201.44;;;12.42;80.91
76260;BME280;65076;52.362;6.588;2023-04-01T04:22:12;99206.88;;;12.31;80.99
76260;BME280;65076;52.362;6.588;2023-04-01T04:24:41;99207.41;;;12.14;80.15
76260;BME280;65076;52.362;6.588;2023-04-01T04:27:09;99213.63;;;12.48;80.75
76260;BME280;65076;52.362;6.588;2023-04-01T04:29:37;99214.53;;;12.26;80.14
76260;BME280;65076;52.362;6.588;2023-04-01T04:32:05;99211.91;;;12.36;81.12
76260;BME280;65076;52.362;6.588;2023-04-01T04:34:33;99217.72;;;12.20;80.74
76260;BME280;65076;52.362;6.588;2023-04-01T04:37:02;99222.41;;;12.40;80.44
76260;BME280;65076;52.362;6.588;2023-04-01T04:39:30;99216.84;;;12.30;80.52
76260;BME280;65076;52.362;6.588;2023-04-01T04:41:58;99222.47;;;12.72;80.34
76260;BME280;65076;52.362;6.588;2023-04-01T04:44:26;99225.03;;;12.85;79.01
76260;BME280;65076;52.362;6.588;2023-04-01T04:46:54;99234.31;;;12.71;78.86
76260;BME280;65076;52.362;6.588;2023-04-01T04:49:24;99227.41;;;12.67;79.36
76260;BME280;65076;52.362;6.588;2023-04-01T04:51:52;99235.72;;;12.43;80.15
76260;BME280;65076;52.362;6.588;2023-04-01T04:54:22;99238.31;;;12.56;79.56
76260;BME280;65076;52.362;6.588;2023-04-01T04:56:51;99249.41;;;12.42;80.27
76260;BME280;65076;52.362;6.588;2023-04-01T04:59:19;99251.22;;;12.74;79.51
76260;BME280;65076;52.362;6.588;2023-04-01T05:01:47;99250.03;;;12.34;79.70
76260;BME280;65076;52.362;6.588;2023-04-01T05:04:15;99248.88;;;12.70;79.24
76260;BME280;65076;52.362;6.588;2023-04-01T05:06:43;99253.81;;;12.65;79.70
76260;BME280;65076;52.362;6.588;2023-04-01T05:09:11;99258.03;;;12.58;79.43
76260;BME280;65076;52.362;6.588;2023-04-01T05:11:41;99256.03;;;12.71;78.57
76260;BME280;65076;52.362;6.588;2023-04-01T05:14:12;99254.59;;;12.56;79.66
76260;BME280;65076;52.362;6.588;2023-04-01T05:16:41;99254.81;;;12.64;78.71
76260;BME280;65076;52.362;6.588;2023-04-01T05:19:09;99263.53;;;12.79;78.74
76260;BME280;65076;52.362;6.588;2023-04-01T05:21:36;99264.69;;;12.65;80.23
76260;BME280;65076;52.362;6.588;2023-04-01T05:24:07;99268.94;;;12.90;79.53
76260;BME280;65076;52.362;6.588;2023-04-01T05:26:36;99257.50;;;12.75;78.04
76260;BME280;65076;52.362;6.588;2023-04-01T05:29:05;99270.59;;;12.70;79.00
76260;BME280;65076;52.362;6.588;2023-04-01T05:31:33;99271.31;;;12.72;78.57
76260;BME280;65076;52.362;6.588;2023-04-01T05:34:01;99272.16;;;12.72;79.43
76260;BME280;65076;52.362;6.588;2023-04-01T05:36:29;99274.50;;;12.88;78.81
76260;BME280;65076;52.362;6.588;2023-04-01T05:38:57;99274.25;;;12.91;78.68
76260;BME280;65076;52.362;6.588;2023-04-01T05:41:25;99283.16;;;12.82;78.54
76260;BME280;65076;52.362;6.588;2023-04-01T05:43:53;99281.66;;;12.89;78.46
76260;BME280;65076;52.362;6.588;2023-04-01T05:46:23;99289.91;;;12.88;79.54
76260;BME280;65076;52.362;6.588;2023-04-01T05:48:51;99287.47;;;12.85;79.40
76260;BME280;65076;52.362;6.588;2023-04-01T05:51:19;99286.06;;;13.01;78.60
76260;BME280;65076;52.362;6.588;2023-04-01T05:53:47;99295.78;;;13.04;79.13
76260;BME280;65076;52.362;6.588;2023-04-01T05:56:15;99294.59;;;12.97;79.02
76260;BME280;65076;52.362;6.588;2023-04-01T05:58:43;99297.03;;;13.11;78.39
76260;BME280;65076;52.362;6.588;2023-04-01T06:01:14;99305.09;;;12.79;78.74
76260;BME280;65076;52.362;6.588;2023-04-01T06:03:43;99298.41;;;12.94;79.04
76260;BME280;65076;52.362;6.588;2023-04-01T06:06:14;99305.38;;;12.65;79.49
76260;BME280;65076;52.362;6.588;2023-04-01T06:08:46;99305.38;;;12.87;78.86
76260;BME280;65076;52.362;6.588;2023-04-01T06:11:23;99303.63;;;12.86;79.27
76260;BME280;65076;52.362;6.588;2023-04-01T06:14:12;99316.44;;;12.84;79.78
76260;BME280;65076;52.362;6.588;2023-04-01T06:17:01;99318.88;;;12.98;78.51
76260;BME280;65076;52.362;6.588;2023-04-01T06:19:51;99315.75;;;12.82;78.81
76260;BME280;65076;52.362;6.588;2023-04-01T06:23:05;99327.06;;;12.87;79.32
76260;BME280;65076;52.362;6.588;2023-04-01T06:25:58;99320.41;;;13.13;78.55
76260;BME280;65076;52.362;6.588;2023-04-01T06:32:02;99334.75;;;12.82;78.84
76260;BME280;65076;52.362;6.588;2023-04-01T06:34:52;99339.50;;;13.01;79.38
76260;BME280;65076;52.362;6.588;2023-04-01T06:37:50;99333.63;;;12.73;79.02
76260;BME280;65076;52.362;6.588;2023-04-01T06:40:48;99337.41;;;13.15;78.88
76260;BME280;65076;52.362;6.588;2023-04-01T06:43:35;99341.34;;;13.23;78.25
76260;BME280;65076;52.362;6.588;2023-04-01T06:46:20;99342.44;;;13.31;77.65
76260;BME280;65076;52.362;6.588;2023-04-01T06:49:12;99343.91;;;13.24;77.97
76260;BME280;65076;52.362;6.588;2023-04-01T06:51:58;99342.59;;;13.50;78.01
76260;BME280;65076;52.362;6.588;2023-04-01T06:54:38;99339.69;;;13.74;76.41
76260;BME280;65076;52.362;6.588;2023-04-01T06:57:19;99348.91;;;13.51;76.16
76260;BME280;65076;52.362;6.588;2023-04-01T06:59:54;99351.03;;;14.00;76.00
76260;BME280;65076;52.362;6.588;2023-04-01T07:02:29;99350.16;;;13.79;75.04
76260;BME280;65076;52.362;6.588;2023-04-01T07:05:06;99363.56;;;13.91;75.83
76260;BME280;65076;52.362;6.588;2023-04-01T07:07:43;99361.31;;;13.96;74.67
76260;BME280;65076;52.362;6.588;2023-04-01T07:10:19;99366.13;;;13.72;75.26
76260;BME280;65076;52.362;6.588;2023-04-01T07:13:00;99365.91;;;14.17;75.20
76260;BME280;65076;52.362;6.588;2023-04-01T07:15:36;99372.84;;;14.10;74.03
76260;BME280;65076;52.362;6.588;2023-04-01T07:18:12;99375.97;;;13.84;75.18
76260;BME280;65076;52.362;6.588;2023-04-01T07:20:45;99384.22;;;13.83;75.35
76260;BME280;65076;52.362;6.588;2023-04-01T07:23:21;99381.56;;;14.45;74.09
76260;BME280;65076;52.362;6.588;2023-04-01T07:25:55;99387.66;;;14.17;73.51
76260;BME280;65076;52.362;6.588;2023-04-01T07:28:30;99390.59;;;14.46;73.49
76260;BME280;65076;52.362;6.588;2023-04-01T07:31:10;99391.09;;;14.81;73.14
76260;BME280;65076;52.362;6.588;2023-04-01T07:33:54;99394.44;;;14.64;71.83
76260;BME280;65076;52.362;6.588;2023-04-01T07:36:35;99402.47;;;14.65;72.64
76260;BME280;65076;52.362;6.588;2023-04-01T07:39:17;99404.31;;;14.86;70.57
76260;BME280;65076;52.362;6.588;2023-04-01T07:42:01;99407.69;;;14.16;72.96
76260;BME280;65076;52.362;6.588;2023-04-01T07:44:41;99408.16;;;14.21;72.49
76260;BME280;65076;52.362;6.588;2023-04-01T07:47:32;99412.09;;;14.69;70.88
76260;BME280;65076;52.362;6.588;2023-04-01T07:50:16;99420.06;;;14.61;71.67
76260;BME280;65076;52.362;6.588;2023-04-01T07:52:59;99424.59;;;13.98;73.53
76260;BME280;65076;52.362;6.588;2023-04-01T07:55:43;99430.50;;;14.87;71.89
76260;BME280;65076;52.362;6.588;2023-04-01T07:58:22;99437.22;;;15.13;72.01
76260;BME280;65076;52.362;6.588;2023-04-01T08:01:00;99431.75;;;14.73;72.02
76260;BME280;65076;52.362;6.588;2023-04-01T08:03:42;99434.75;;;14.49;73.61
76260;BME280;65076;52.362;6.588;2023-04-01T08:06:28;99442.81;;;14.60;72.13
76260;BME280;65076;52.362;6.588;2023-04-01T08:09:05;99441.13;;;14.59;73.85
76260;BME280;65076;52.362;6.588;2023-04-01T08:11:57;99449.69;;;15.06;72.87
76260;BME280;65076;52.362;6.588;2023-04-01T08:14:44;99456.97;;;14.33;73.93
76260;BME280;65076;52.362;6.588;2023-04-01T08:17:23;99452.94;;;14.49;74.80
76260;BME280;65076;52.362;6.588;2023-04-01T08:20:10;99458.63;;;14.66;74.33
76260;BME280;65076;52.362;6.588;2023-04-01T08:22:56;99459.25;;;14.49;74.29
76260;BME280;65076;52.362;6.588;2023-04-01T08:25:29;99471.53;;;14.85;73.38
76260;BME280;65076;52.362;6.588;2023-04-01T08:28:10;99477.56;;;14.89;73.66
76260;BME280;65076;52.362;6.588;2023-04-01T08:30:49;99469.59;;;14.97;73.63
76260;BME280;65076;52.362;6.588;2023-04-01T08:33:32;99478.34;;;15.00;72.74
76260;BME280;65076;52.362;6.588;2023-04-01T08:36:05;99484.56;;;13.97;74.53
76260;BME280;65076;52.362;6.588;2023-04-01T08:38:42;99474.66;;;14.60;75.33
76260;BME280;65076;52.362;6.588;2023-04-01T08:41:36;99484.53;;;14.40;75.68
76260;BME280;65076;52.362;6.588;2023-04-01T08:44:57;99493.91;;;14.47;75.79
76260;BME280;65076;52.362;6.588;2023-04-01T08:51:11;99500.81;;;13.76;77.50
76260;BME280;65076;52.362;6.588;2023-04-01T08:54:25;99507.50;;;13.61;77.82
76260;BME280;65076;52.362;6.588;2023-04-01T08:57:07;99513.44;;;13.55;78.35
76260;BME280;65076;52.362;6.588;2023-04-01T09:00:05;99512.31;;;13.35;78.83
76260;BME280;65076;52.362;6.588;2023-04-01T09:02:55;99516.66;;;13.38;78.95
76260;BME280;65076;52.362;6.588;2023-04-01T09:05:47;99520.47;;;13.35;78.48
76260;BME280;65076;52.362;6.588;2023-04-01T09:08:50;99525.06;;;13.12;79.54
76260;BME280;65076;52.362;6.588;2023-04-01T09:11:38;99530.19;;;13.04;79.87
76260;BME280;65076;52.362;6.588;2023-04-01T09:14:41;99530.47;;;13.35;79.71
76260;BME280;65076;52.362;6.588;2023-04-01T09:17:51;99540.00;;;13.18;80.16
76260;BME280;65076;52.362;6.588;2023-04-01T09:21:00;99540.13;;;13.17;79.47
76260;BME280;65076;52.362;6.588;2023-04-01T09:24:14;99541.38;;;13.24;80.52
76260;BME280;65076;52.362;6.588;2023-04-01T09:27:02;99549.16;;;13.39;79.22
76260;BME280;65076;52.362;6.588;2023-04-01T09:29:58;99549.75;;;13.43;78.63
76260;BME280;65076;52.362;6.588;2023-04-01T09:33:01;99551.84;;;13.50;78.29
76260;BME280;65076;52.362;6.588;2023-04-01T09:36:12;99557.16;;;13.41;79.14
76260;BME280;65076;52.362;6.588;2023-04-01T09:38:56;99565.44;;;13.73;78.66
76260;BME280;65076;52.362;6.588;2023-04-01T09:41:30;99564.84;;;14.23;77.84
76260;BME280;65076;52.362;6.588;2023-04-01T09:44:04;99572.63;;;14.28;76.02
76260;BME280;65076;52.362;6.588;2023-04-01T09:46:59;99574.69;;;14.35;74.62
76260;BME280;65076;52.362;6.588;2023-04-01T09:50:14;99582.19;;;14.11;75.14
76260;BME280;65076;52.362;6.588;2023-04-01T09:53:02;99580.78;;;14.28;75.82
76260;BME280;65076;52.362;6.588;2023-04-01T09:59:20;99589.47;;;14.22;76.13
76260;BME280;65076;52.362;6.588;2023-04-01T10:05:52;99592.94;;;14.56;73.78
76260;BME280;65076;52.362;6.588;2023-04-01T10:09:05;99596.50;;;14.67;74.22
76260;BME280;65076;52.362;6.588;2023-04-01T10:15:46;99607.03;;;14.93;73.82
76260;BME280;65076;52.362;6.588;2023-04-01T10:21:57;99612.88;;;15.09;72.33
76260;BME280;65076;52.362;6.588;2023-04-01T10:28:29;99623.28;;;14.83;71.79
76260;BME280;65076;52.362;6.588;2023-04-01T10:31:39;99622.91;;;14.56;72.88
76260;BME280;65076;52.362;6.588;2023-04-01T10:38:02;99628.22;;;14.89;73.73
76260;BME280;65076;52.362;6.588;2023-04-01T10:41:00;99636.47;;;15.19;71.70
76260;BME280;65076;52.362;6.588;2023-04-01T10:44:11;99626.72;;;15.58;71.75
76260;BME280;65076;52.362;6.588;2023-04-01T10:47:09;99625.09;;;15.35;71.64
76260;BME280;65076;52.362;6.588;2023-04-01T10:50:16;99630.59;;;15.45;70.74
76260;BME280;65076;52.362;6.588;2023-04-01T10:59:45;99644.22;;;14.39;74.70
76260;BME280;65076;52.362;6.588;2023-04-01T11:06:19;99643.97;;;14.43;75.91
76260;BME280;65076;52.362;6.588;2023-04-01T11:22:48;99674.41;;;14.25;76.70
76260;BME280;65076;52.362;6.588;2023-04-01T11:25:49;99676.00;;;14.50;76.73
76260;BME280;65076;52.362;6.588;2023-04-01T11:28:43;99679.47;;;14.30;76.41
76260;BME280;65076;52.362;6.588;2023-04-01T11:31:31;99684.53;;;14.34;75.74
76260;BME280;65076;52.362;6.588;2023-04-01T11:34:20;99684.41;;;14.36;77.71
76260;BME280;65076;52.362;6.588;2023-04-01T11:37:15;99686.16;;;14.48;78.31
76260;BME280;65076;52.362;6.588;2023-04-01T11:40:06;99688.78;;;14.38;77.17
76260;BME280;65076;52.362;6.588;2023-04-01T11:42:46;99696.81;;;14.18;78.21
76260;BME280;65076;52.362;6.588;2023-04-01T11:45:32;99707.69;;;14.07;77.50
76260;BME280;65076;52.362;6.588;2023-04-01T11:48:20;99705.69;;;14.09;76.80
76260;BME280;65076;52.362;6.588;2023-04-01T11:51:11;99714.72;;;14.09;78.47
76260;BME280;65076;52.362;6.588;2023-04-01T11:54:01;99715.34;;;14.24;78.13
76260;BME280;65076;52.362;6.588;2023-04-01T11:56:48;99726.72;;;14.07;77.77
76260;BME280;65076;52.362;6.588;2023-04-01T11:59:44;99729.19;;;13.98;79.19
76260;BME280;65076;52.362;6.588;2023-04-01T12:02:32;99739.59;;;14.05;77.74
76260;BME280;65076;52.362;6.588;2023-04-01T12:05:31;99740.19;;;13.86;78.27
76260;BME280;65076;52.362;6.588;2023-04-01T12:08:27;99742.03;;;13.74;79.96
76260;BME280;65076;52.362;6.588;2023-04-01T12:11:09;99755.75;;;13.84;78.75
76260;BME280;65076;52.362;6.588;2023-04-01T12:13:49;99754.78;;;13.96;79.37
76260;BME280;65076;52.362;6.588;2023-04-01T12:16:41;99760.09;;;14.09;79.21
76260;BME280;65076;52.362;6.588;2023-04-01T12:19:22;99765.25;;;13.78;79.61
76260;BME280;65076;52.362;6.588;2023-04-01T12:22:09;99764.53;;;13.87;78.57
76260;BME280;65076;52.362;6.588;2023-04-01T12:24:58;99771.69;;;13.77;78.56
76260;BME280;65076;52.362;6.588;2023-04-01T12:27:58;99783.78;;;13.73;79.32
76260;BME280;65076;52.362;6.588;2023-04-01T12:30:46;99778.78;;;14.02;79.01
76260;BME280;65076;52.362;6.588;2023-04-01T12:36:40;99781.72;;;13.99;78.47
76260;BME280;65076;52.362;6.588;2023-04-01T12:39:29;99785.09;;;14.03;77.63
76260;BME280;65076;52.362;6.588;2023-04-01T12:42:14;99784.84;;;14.06;77.48
76260;BME280;65076;52.362;6.588;2023-04-01T12:45:00;99800.88;;;13.97;77.02
76260;BME280;65076;52.362;6.588;2023-04-01T12:51:15;99808.00;;;13.65;78.09
76260;BME280;65076;52.362;6.588;2023-04-01T12:54:39;99821.25;;;13.81;78.92
76260;BME280;65076;52.362;6.588;2023-04-01T12:57:32;99820.91;;;13.85;78.45
76260;BME280;65076;52.362;6.588;2023-04-01T13:00:32;99820.25;;;13.71;77.93
76260;BME280;65076;52.362;6.588;2023-04-01T13:03:27;99829.78;;;13.76;78.19
76260;BME280;65076;52.362;6.588;2023-04-01T13:06:22;99831.13;;;13.82;78.39
76260;BME280;65076;52.362;6.588;2023-04-01T13:09:10;99842.72;;;13.73;79.95
76260;BME280;65076;52.362;6.588;2023-04-01T13:12:00;99844.16;;;13.54;80.57
76260;BME280;65076;52.362;6.588;2023-04-01T13:14:56;99854.88;;;13.56;80.02
76260;BME280;65076;52.362;6.588;2023-04-01T13:17:40;99847.84;;;13.53;80.10
76260;BME280;65076;52.362;6.588;2023-04-01T13:20:28;99852.19;;;13.91;79.66
76260;BME280;65076;52.362;6.588;2023-04-01T13:23:16;99851.84;;;13.61;77.69
76260;BME280;65076;52.362;6.588;2023-04-01T13:26:05;99859.00;;;13.38;77.78
76260;BME280;65076;52.362;6.588;2023-04-01T13:28:45;99863.75;;;13.47;79.24
76260;BME280;65076;52.362;6.588;2023-04-01T13:31:31;99864.13;;;13.30;79.39
76260;BME280;65076;52.362;6.588;2023-04-01T13:34:24;99872.09;;;13.33;79.23
76260;BME280;65076;52.362;6.588;2023-04-01T13:37:16;99881.13;;;13.21;79.86
76260;BME280;65076;52.362;6.588;2023-04-01T13:40:02;99892.59;;;13.37;79.93
76260;BME280;65076;52.362;6.588;2023-04-01T13:42:50;99879.78;;;13.39;78.68
76260;BME280;65076;52.362;6.588;2023-04-01T13:45:29;99888.94;;;13.25;80.51
76260;BME280;65076;52.362;6.588;2023-04-01T13:51:42;99898.88;;;13.13;81.32
76260;BME280;65076;52.362;6.588;2023-04-01T13:54:42;99898.41;;;13.20;78.96
76260;BME280;65076;52.362;6.588;2023-04-01T13:57:52;99916.50;;;12.83;79.46
76260;BME280;65076;52.362;6.588;2023-04-01T14:00:43;99915.41;;;12.72;79.49
76260;BME280;65076;52.362;6.588;2023-04-01T14:03:37;99918.69;;;12.78;80.28
76260;BME280;65076;52.362;6.588;2023-04-01T14:06:31;99930.75;;;12.73;81.87
76260;BME280;65076;52.362;6.588;2023-04-01T14:09:30;99935.53;;;12.70;81.57
76260;BME280;65076;52.362;6.588;2023-04-01T14:12:17;99933.38;;;12.50;81.94
76260;BME280;65076;52.362;6.588;2023-04-01T14:15:07;99947.69;;;12.39;82.41
76260;BME280;65076;52.362;6.588;2023-04-01T14:18:06;99949.75;;;12.48;81.98
76260;BME280;65076;52.362;6.588;2023-04-01T14:21:07;99955.81;;;12.52;82.73
76260;BME280;65076;52.362;6.588;2023-04-01T14:24:15;99957.25;;;12.45;81.09
76260;BME280;65076;52.362;6.588;2023-04-01T14:27:09;99967.97;;;12.59;80.70
76260;BME280;65076;52.362;6.588;2023-04-01T14:33:23;99971.25;;;12.64;81.26
76260;BME280;65076;52.362;6.588;2023-04-01T14:36:17;99976.44;;;12.67;81.51
76260;BME280;65076;52.362;6.588;2023-04-01T14:39:06;99974.59;;;12.67;81.97
76260;BME280;65076;52.362;6.588;2023-04-01T14:41:48;99981.56;;;12.84;81.08
76260;BME280;65076;52.362;6.588;2023-04-01T14:44:53;99985.47;;;12.80;81.42
76260;BME280;65076;52.362;6.588;2023-04-01T14:47:46;99995.66;;;12.89;81.70
76260;BME280;65076;52.362;6.588;2023-04-01T14:50:18;99997.06;;;12.95;81.82
76260;BME280;65076;52.362;6.588;2023-04-01T14:52:57;99999.59;;;12.85;81.39
76260;BME280;65076;52.362;6.588;2023-04-01T14:55:48;99998.41;;;12.77;82.35
76260;BME280;65076;52.362;6.588;2023-04-01T14:58:19;100014.03;;;12.60;82.38
76260;BME280;65076;52.362;6.588;2023-04-01T15:01:06;100019.97;;;12.40;82.36
76260;BME280;65076;52.362;6.588;2023-04-01T15:03:49;100022.78;;;12.39;82.53
76260;BME280;65076;52.362;6.588;2023-04-01T15:06:48;100035.19;;;12.16;83.21
76260;BME280;65076;52.362;6.588;2023-04-01T15:09:32;100037.44;;;12.09;83.08
76260;BME280;65076;52.362;6.588;2023-04-01T15:12:18;100046.03;;;11.89;83.27
76260;BME280;65076;52.362;6.588;2023-04-01T15:15:02;100058.72;;;11.88;83.63
76260;BME280;65076;52.362;6.588;2023-04-01T15:17:51;100062.34;;;11.75;83.64